Indianapolis, Iowa
Current Conditions -  °F | °C
As of 2:15 AM on Monday 26 Jan 2015 (Local Time) from KOOA Reporting Station
Overcast Overcast  
Wind Chill: 29°   Ceiling: 2400
Heat Index: 29°   Visibility: 10mi
Dew Point: 27°   Wind: 3mph
Humidity: 92%   Direction: 180°S
Pressure: 30.03"   Gusts: NA
Location:  41.3798°N, 92.3541°W
Report Text: KOOA 260815Z AUTO 18003KT 10SM OVC024 M02/M03 A3003 RMK AO2 T10181030
Loading
Personal Weather Stations






























Interactive Weather Map New forecast layout! Learn more

10-Day Weather Forecast

Advertisements
Track Severe Weather on mobile